sensor_id;sensor_type;location;lat;lon;timestamp;P1;durP1;ratioP1;P2;durP2;ratioP2
28551;SDS011;15752;49.560;8.708;2023-01-13T00:01:25;2.83;;;0.80;;
28551;SDS011;15752;49.560;8.708;2023-01-13T00:03:54;1.77;;;0.60;;
28551;SDS011;15752;49.560;8.708;2023-01-13T00:06:26;3.33;;;0.63;;
28551;SDS011;15752;49.560;8.708;2023-01-13T00:08:55;2.10;;;0.97;;
28551;SDS011;15752;49.560;8.708;2023-01-13T00:11:23;1.67;;;0.77;;
28551;SDS011;15752;49.560;8.708;2023-01-13T00:13:53;2.47;;;0.70;;
28551;SDS011;15752;49.560;8.708;2023-01-13T00:16:23;2.83;;;0.80;;
28551;SDS011;15752;49.560;8.708;2023-01-13T00:18:51;0.97;;;0.50;;
28551;SDS011;15752;49.560;8.708;2023-01-13T00:21:20;1.47;;;0.80;;
28551;SDS011;15752;49.560;8.708;2023-01-13T00:23:51;3.00;;;0.53;;
28551;SDS011;15752;49.560;8.708;2023-01-13T00:26:22;2.57;;;0.80;;
28551;SDS011;15752;49.560;8.708;2023-01-13T00:28:55;1.70;;;0.60;;
28551;SDS011;15752;49.560;8.708;2023-01-13T00:31:26;1.90;;;0.80;;
28551;SDS011;15752;49.560;8.708;2023-01-13T00:33:56;1.70;;;0.80;;
28551;SDS011;15752;49.560;8.708;2023-01-13T00:36:26;1.43;;;0.63;;
28551;SDS011;15752;49.560;8.708;2023-01-13T00:38:56;0.97;;;0.57;;
28551;SDS011;15752;49.560;8.708;2023-01-13T00:41:25;1.30;;;0.60;;
28551;SDS011;15752;49.560;8.708;2023-01-13T00:43:54;2.10;;;0.90;;
28551;SDS011;15752;49.560;8.708;2023-01-13T00:46:22;2.50;;;0.70;;
28551;SDS011;15752;49.560;8.708;2023-01-13T00:48:52;0.83;;;0.50;;
28551;SDS011;15752;49.560;8.708;2023-01-13T00:51:20;2.17;;;0.73;;
28551;SDS011;15752;49.560;8.708;2023-01-13T00:53:49;2.20;;;0.60;;
28551;SDS011;15752;49.560;8.708;2023-01-13T00:56:19;1.57;;;0.73;;
28551;SDS011;15752;49.560;8.708;2023-01-13T00:59:04;1.70;;;0.70;;
28551;SDS011;15752;49.560;8.708;2023-01-13T01:01:33;1.97;;;0.60;;
28551;SDS011;15752;49.560;8.708;2023-01-13T01:04:03;2.93;;;0.70;;
28551;SDS011;15752;49.560;8.708;2023-01-13T01:06:32;1.37;;;0.60;;
28551;SDS011;15752;49.560;8.708;2023-01-13T01:09:01;2.70;;;0.87;;
28551;SDS011;15752;49.560;8.708;2023-01-13T01:11:31;1.60;;;0.80;;
28551;SDS011;15752;49.560;8.708;2023-01-13T01:14:01;2.63;;;0.80;;
28551;SDS011;15752;49.560;8.708;2023-01-13T01:16:31;2.10;;;0.70;;
28551;SDS011;15752;49.560;8.708;2023-01-13T01:19:00;1.83;;;0.57;;
28551;SDS011;15752;49.560;8.708;2023-01-13T01:21:32;0.70;;;0.50;;
28551;SDS011;15752;49.560;8.708;2023-01-13T01:24:02;2.90;;;0.70;;
28551;SDS011;15752;49.560;8.708;2023-01-13T01:26:32;1.47;;;0.60;;
28551;SDS011;15752;49.560;8.708;2023-01-13T01:29:13;1.20;;;0.50;;
28551;SDS011;15752;49.560;8.708;2023-01-13T01:31:42;2.03;;;0.60;;
28551;SDS011;15752;49.560;8.708;2023-01-13T01:34:11;3.10;;;0.70;;
28551;SDS011;15752;49.560;8.708;2023-01-13T01:36:40;2.93;;;0.80;;
28551;SDS011;15752;49.560;8.708;2023-01-13T01:39:09;2.77;;;0.40;;
28551;SDS011;15752;49.560;8.708;2023-01-13T01:41:38;3.03;;;0.70;;
28551;SDS011;15752;49.560;8.708;2023-01-13T01:47:21;1.23;;;0.50;;
28551;SDS011;15752;49.560;8.708;2023-01-13T01:49:51;3.07;;;0.80;;
28551;SDS011;15752;49.560;8.708;2023-01-13T01:52:22;2.57;;;0.80;;
28551;SDS011;15752;49.560;8.708;2023-01-13T01:54:56;1.13;;;0.50;;
28551;SDS011;15752;49.560;8.708;2023-01-13T01:57:34;2.90;;;0.50;;
28551;SDS011;15752;49.560;8.708;2023-01-13T02:00:08;1.33;;;0.50;;
28551;SDS011;15752;49.560;8.708;2023-01-13T02:02:38;2.23;;;0.67;;
28551;SDS011;15752;49.560;8.708;2023-01-13T02:05:09;2.93;;;0.77;;
28551;SDS011;15752;49.560;8.708;2023-01-13T02:07:39;1.33;;;0.60;;
28551;SDS011;15752;49.560;8.708;2023-01-13T02:10:11;2.07;;;0.57;;
28551;SDS011;15752;49.560;8.708;2023-01-13T02:12:42;1.23;;;0.70;;
28551;SDS011;15752;49.560;8.708;2023-01-13T02:15:13;1.57;;;0.50;;
28551;SDS011;15752;49.560;8.708;2023-01-13T02:17:47;1.03;;;0.50;;
28551;SDS011;15752;49.560;8.708;2023-01-13T02:23:35;1.53;;;0.60;;
28551;SDS011;15752;49.560;8.708;2023-01-13T02:30:14;1.53;;;0.50;;
28551;SDS011;15752;49.560;8.708;2023-01-13T02:33:16;1.83;;;0.90;;
28551;SDS011;15752;49.560;8.708;2023-01-13T02:35:58;0.93;;;0.70;;
28551;SDS011;15752;49.560;8.708;2023-01-13T02:38:33;2.20;;;0.77;;
28551;SDS011;15752;49.560;8.708;2023-01-13T02:41:06;1.30;;;0.67;;
28551;SDS011;15752;49.560;8.708;2023-01-13T02:43:59;1.63;;;0.57;;
28551;SDS011;15752;49.560;8.708;2023-01-13T02:46:35;5.13;;;0.83;;
28551;SDS011;15752;49.560;8.708;2023-01-13T02:49:12;1.73;;;0.60;;
28551;SDS011;15752;49.560;8.708;2023-01-13T02:51:51;1.30;;;0.60;;
28551;SDS011;15752;49.560;8.708;2023-01-13T02:54:27;2.03;;;0.50;;
28551;SDS011;15752;49.560;8.708;2023-01-13T02:56:57;1.37;;;0.47;;
28551;SDS011;15752;49.560;8.708;2023-01-13T02:59:28;1.70;;;0.30;;
28551;SDS011;15752;49.560;8.708;2023-01-13T03:01:59;0.87;;;0.40;;
28551;SDS011;15752;49.560;8.708;2023-01-13T03:04:44;1.03;;;0.50;;
28551;SDS011;15752;49.560;8.708;2023-01-13T03:16:26;0.83;;;0.60;;
28551;SDS011;15752;49.560;8.708;2023-01-13T03:19:10;2.40;;;0.57;;
28551;SDS011;15752;49.560;8.708;2023-01-13T03:21:47;2.60;;;0.43;;
28551;SDS011;15752;49.560;8.708;2023-01-13T03:24:21;2.37;;;0.50;;
28551;SDS011;15752;49.560;8.708;2023-01-13T03:26:57;0.63;;;0.40;;
28551;SDS011;15752;49.560;8.708;2023-01-13T03:29:31;0.90;;;0.60;;
28551;SDS011;15752;49.560;8.708;2023-01-13T03:32:04;1.13;;;0.50;;
28551;SDS011;15752;49.560;8.708;2023-01-13T03:34:40;3.53;;;0.50;;
28551;SDS011;15752;49.560;8.708;2023-01-13T03:37:13;1.20;;;0.50;;
28551;SDS011;15752;49.560;8.708;2023-01-13T03:39:46;1.13;;;0.40;;
28551;SDS011;15752;49.560;8.708;2023-01-13T03:42:21;1.80;;;0.60;;
28551;SDS011;15752;49.560;8.708;2023-01-13T03:44:52;1.33;;;0.40;;
28551;SDS011;15752;49.560;8.708;2023-01-13T03:47:26;1.43;;;0.53;;
28551;SDS011;15752;49.560;8.708;2023-01-13T03:50:00;1.37;;;0.50;;
28551;SDS011;15752;49.560;8.708;2023-01-13T03:52:33;2.40;;;0.30;;
28551;SDS011;15752;49.560;8.708;2023-01-13T03:55:06;2.20;;;0.70;;
28551;SDS011;15752;49.560;8.708;2023-01-13T03:57:39;2.80;;;0.40;;
28551;SDS011;15752;49.560;8.708;2023-01-13T04:00:14;1.43;;;0.40;;
28551;SDS011;15752;49.560;8.708;2023-01-13T04:02:47;0.67;;;0.37;;
28551;SDS011;15752;49.560;8.708;2023-01-13T04:05:20;0.93;;;0.50;;
28551;SDS011;15752;49.560;8.708;2023-01-13T04:07:51;0.53;;;0.50;;
28551;SDS011;15752;49.560;8.708;2023-01-13T04:10:29;1.30;;;0.40;;
28551;SDS011;15752;49.560;8.708;2023-01-13T04:13:03;1.10;;;0.50;;
28551;SDS011;15752;49.560;8.708;2023-01-13T04:15:36;1.23;;;0.57;;
28551;SDS011;15752;49.560;8.708;2023-01-13T04:18:08;1.23;;;0.60;;
28551;SDS011;15752;49.560;8.708;2023-01-13T04:20:41;0.77;;;0.43;;
28551;SDS011;15752;49.560;8.708;2023-01-13T04:23:11;1.27;;;0.40;;
28551;SDS011;15752;49.560;8.708;2023-01-13T04:25:40;2.47;;;0.50;;
28551;SDS011;15752;49.560;8.708;2023-01-13T04:28:10;4.70;;;0.80;;
28551;SDS011;15752;49.560;8.708;2023-01-13T04:30:39;0.87;;;0.43;;
28551;SDS011;15752;49.560;8.708;2023-01-13T04:33:08;2.30;;;0.63;;
28551;SDS011;15752;49.560;8.708;2023-01-13T04:35:37;0.73;;;0.40;;
28551;SDS011;15752;49.560;8.708;2023-01-13T04:38:08;2.37;;;0.50;;
28551;SDS011;15752;49.560;8.708;2023-01-13T04:40:38;0.97;;;0.50;;
28551;SDS011;15752;49.560;8.708;2023-01-13T04:43:08;1.23;;;0.50;;
28551;SDS011;15752;49.560;8.708;2023-01-13T04:45:36;1.97;;;0.50;;
28551;SDS011;15752;49.560;8.708;2023-01-13T04:48:05;0.90;;;0.50;;
28551;SDS011;15752;49.560;8.708;2023-01-13T04:50:34;1.03;;;0.43;;
28551;SDS011;15752;49.560;8.708;2023-01-13T04:53:02;1.33;;;0.40;;
28551;SDS011;15752;49.560;8.708;2023-01-13T04:55:32;1.10;;;0.60;;
28551;SDS011;15752;49.560;8.708;2023-01-13T04:58:01;0.83;;;0.40;;
28551;SDS011;15752;49.560;8.708;2023-01-13T05:00:31;4.07;;;0.77;;
28551;SDS011;15752;49.560;8.708;2023-01-13T05:02:59;1.13;;;0.77;;
28551;SDS011;15752;49.560;8.708;2023-01-13T05:05:28;2.03;;;1.20;;
28551;SDS011;15752;49.560;8.708;2023-01-13T05:07:57;0.77;;;0.70;;
28551;SDS011;15752;49.560;8.708;2023-01-13T05:10:25;0.63;;;0.60;;
28551;SDS011;15752;49.560;8.708;2023-01-13T05:12:55;2.40;;;0.67;;
28551;SDS011;15752;49.560;8.708;2023-01-13T05:15:41;2.10;;;0.70;;
28551;SDS011;15752;49.560;8.708;2023-01-13T05:18:32;2.53;;;1.00;;
28551;SDS011;15752;49.560;8.708;2023-01-13T05:21:00;1.07;;;0.73;;
28551;SDS011;15752;49.560;8.708;2023-01-13T05:23:29;1.53;;;0.80;;
28551;SDS011;15752;49.560;8.708;2023-01-13T05:26:15;2.23;;;1.10;;
28551;SDS011;15752;49.560;8.708;2023-01-13T05:28:44;1.40;;;1.10;;
28551;SDS011;15752;49.560;8.708;2023-01-13T05:31:13;0.83;;;0.70;;
28551;SDS011;15752;49.560;8.708;2023-01-13T05:33:41;1.30;;;0.73;;
28551;SDS011;15752;49.560;8.708;2023-01-13T05:36:10;1.37;;;0.60;;
28551;SDS011;15752;49.560;8.708;2023-01-13T05:38:38;2.27;;;0.90;;
28551;SDS011;15752;49.560;8.708;2023-01-13T05:41:08;1.00;;;0.70;;
28551;SDS011;15752;49.560;8.708;2023-01-13T05:43:55;1.13;;;0.90;;
28551;SDS011;15752;49.560;8.708;2023-01-13T05:46:23;1.37;;;0.70;;
28551;SDS011;15752;49.560;8.708;2023-01-13T05:48:52;1.23;;;0.53;;
28551;SDS011;15752;49.560;8.708;2023-01-13T05:51:20;0.83;;;0.60;;
28551;SDS011;15752;49.560;8.708;2023-01-13T05:53:51;1.40;;;0.80;;
28551;SDS011;15752;49.560;8.708;2023-01-13T05:56:20;1.17;;;0.73;;
28551;SDS011;15752;49.560;8.708;2023-01-13T05:58:48;0.70;;;0.50;;
28551;SDS011;15752;49.560;8.708;2023-01-13T06:01:18;1.10;;;0.67;;
28551;SDS011;15752;49.560;8.708;2023-01-13T06:03:46;2.40;;;0.43;;
28551;SDS011;15752;49.560;8.708;2023-01-13T06:06:15;1.53;;;0.37;;
28551;SDS011;15752;49.560;8.708;2023-01-13T06:08:43;1.33;;;0.80;;
28551;SDS011;15752;49.560;8.708;2023-01-13T06:11:11;0.43;;;0.40;;
28551;SDS011;15752;49.560;8.708;2023-01-13T06:13:40;0.70;;;0.50;;
28551;SDS011;15752;49.560;8.708;2023-01-13T06:16:08;1.00;;;0.57;;
28551;SDS011;15752;49.560;8.708;2023-01-13T06:18:38;0.83;;;0.47;;
28551;SDS011;15752;49.560;8.708;2023-01-13T06:21:07;0.77;;;0.40;;
28551;SDS011;15752;49.560;8.708;2023-01-13T06:23:35;2.00;;;0.50;;
28551;SDS011;15752;49.560;8.708;2023-01-13T06:26:04;1.10;;;0.57;;
28551;SDS011;15752;49.560;8.708;2023-01-13T06:28:39;1.80;;;0.40;;
28551;SDS011;15752;49.560;8.708;2023-01-13T06:31:08;2.10;;;1.40;;
28551;SDS011;15752;49.560;8.708;2023-01-13T06:33:40;1.50;;;0.80;;
28551;SDS011;15752;49.560;8.708;2023-01-13T06:36:14;1.57;;;0.77;;
28551;SDS011;15752;49.560;8.708;2023-01-13T06:38:45;5.57;;;2.93;;
28551;SDS011;15752;49.560;8.708;2023-01-13T06:41:17;2.07;;;1.10;;
28551;SDS011;15752;49.560;8.708;2023-01-13T06:44:08;1.57;;;0.80;;
28551;SDS011;15752;49.560;8.708;2023-01-13T06:46:35;1.13;;;0.60;;
28551;SDS011;15752;49.560;8.708;2023-01-13T06:49:05;0.93;;;0.70;;
28551;SDS011;15752;49.560;8.708;2023-01-13T06:51:34;1.50;;;0.90;;
28551;SDS011;15752;49.560;8.708;2023-01-13T06:54:03;2.37;;;1.77;;
28551;SDS011;15752;49.560;8.708;2023-01-13T06:56:31;1.53;;;1.33;;
28551;SDS011;15752;49.560;8.708;2023-01-13T06:59:00;1.30;;;1.20;;
28551;SDS011;15752;49.560;8.708;2023-01-13T07:01:28;1.53;;;0.87;;
28551;SDS011;15752;49.560;8.708;2023-01-13T07:03:57;1.57;;;0.90;;
28551;SDS011;15752;49.560;8.708;2023-01-13T07:06:27;1.43;;;0.80;;
28551;SDS011;15752;49.560;8.708;2023-01-13T07:08:55;1.43;;;0.60;;
28551;SDS011;15752;49.560;8.708;2023-01-13T07:11:24;1.10;;;0.60;;
28551;SDS011;15752;49.560;8.708;2023-01-13T07:13:52;2.30;;;1.00;;
28551;SDS011;15752;49.560;8.708;2023-01-13T07:16:50;2.17;;;1.20;;
28551;SDS011;15752;49.560;8.708;2023-01-13T07:19:19;1.53;;;1.30;;
28551;SDS011;15752;49.560;8.708;2023-01-13T07:21:51;1.77;;;1.10;;
28551;SDS011;15752;49.560;8.708;2023-01-13T07:24:19;0.70;;;0.70;;
28551;SDS011;15752;49.560;8.708;2023-01-13T07:26:49;1.60;;;0.83;;
28551;SDS011;15752;49.560;8.708;2023-01-13T07:29:18;1.63;;;0.93;;
28551;SDS011;15752;49.560;8.708;2023-01-13T07:31:46;1.97;;;1.10;;
28551;SDS011;15752;49.560;8.708;2023-01-13T07:34:15;1.67;;;0.90;;
28551;SDS011;15752;49.560;8.708;2023-01-13T07:36:44;1.40;;;0.90;;
28551;SDS011;15752;49.560;8.708;2023-01-13T07:39:13;1.10;;;0.73;;
28551;SDS011;15752;49.560;8.708;2023-01-13T07:41:42;4.30;;;0.70;;
28551;SDS011;15752;49.560;8.708;2023-01-13T07:44:28;0.60;;;0.50;;
28551;SDS011;15752;49.560;8.708;2023-01-13T07:46:56;0.80;;;0.50;;
28551;SDS011;15752;49.560;8.708;2023-01-13T07:49:25;0.97;;;0.60;;
28551;SDS011;15752;49.560;8.708;2023-01-13T07:51:53;2.43;;;1.10;;
28551;SDS011;15752;49.560;8.708;2023-01-13T07:54:23;1.43;;;1.03;;
28551;SDS011;15752;49.560;8.708;2023-01-13T07:57:05;0.77;;;0.60;;
28551;SDS011;15752;49.560;8.708;2023-01-13T07:59:34;2.47;;;1.00;;
28551;SDS011;15752;49.560;8.708;2023-01-13T08:02:02;2.73;;;1.30;;
28551;SDS011;15752;49.560;8.708;2023-01-13T08:04:31;1.43;;;0.60;;
28551;SDS011;15752;49.560;8.708;2023-01-13T08:07:00;0.90;;;0.53;;
28551;SDS011;15752;49.560;8.708;2023-01-13T08:09:30;1.47;;;0.80;;
28551;SDS011;15752;49.560;8.708;2023-01-13T08:11:59;0.90;;;0.57;;
28551;SDS011;15752;49.560;8.708;2023-01-13T08:14:41;0.90;;;0.53;;
28551;SDS011;15752;49.560;8.708;2023-01-13T08:17:09;1.70;;;0.60;;
28551;SDS011;15752;49.560;8.708;2023-01-13T08:19:38;1.83;;;0.90;;
28551;SDS011;15752;49.560;8.708;2023-01-13T08:22:06;1.53;;;0.80;;
28551;SDS011;15752;49.560;8.708;2023-01-13T08:24:36;2.30;;;0.50;;
28551;SDS011;15752;49.560;8.708;2023-01-13T08:27:04;0.97;;;0.40;;
28551;SDS011;15752;49.560;8.708;2023-01-13T08:29:33;1.47;;;0.60;;
28551;SDS011;15752;49.560;8.708;2023-01-13T08:32:01;2.50;;;2.10;;
28551;SDS011;15752;49.560;8.708;2023-01-13T08:34:29;7.10;;;4.30;;
28551;SDS011;15752;49.560;8.708;2023-01-13T08:36:58;7.33;;;4.93;;
28551;SDS011;15752;49.560;8.708;2023-01-13T08:39:26;4.67;;;2.90;;
28551;SDS011;15752;49.560;8.708;2023-01-13T08:41:56;3.50;;;1.70;;
28551;SDS011;15752;49.560;8.708;2023-01-13T08:44:25;2.90;;;2.10;;
28551;SDS011;15752;49.560;8.708;2023-01-13T08:46:56;1.87;;;0.97;;
28551;SDS011;15752;49.560;8.708;2023-01-13T08:49:25;4.20;;;1.10;;
28551;SDS011;15752;49.560;8.708;2023-01-13T08:51:54;3.57;;;0.87;;
28551;SDS011;15752;49.560;8.708;2023-01-13T08:54:23;3.40;;;0.90;;
28551;SDS011;15752;49.560;8.708;2023-01-13T08:56:53;2.57;;;0.87;;
28551;SDS011;15752;49.560;8.708;2023-01-13T08:59:23;2.13;;;1.07;;
28551;SDS011;15752;49.560;8.708;2023-01-13T09:01:51;2.50;;;0.80;;
28551;SDS011;15752;49.560;8.708;2023-01-13T09:04:26;1.67;;;0.63;;
28551;SDS011;15752;49.560;8.708;2023-01-13T09:06:56;0.87;;;0.60;;
28551;SDS011;15752;49.560;8.708;2023-01-13T09:09:24;2.60;;;0.80;;
28551;SDS011;15752;49.560;8.708;2023-01-13T09:11:53;3.87;;;1.10;;
28551;SDS011;15752;49.560;8.708;2023-01-13T09:14:41;2.53;;;0.87;;
28551;SDS011;15752;49.560;8.708;2023-01-13T09:17:09;2.87;;;1.03;;
28551;SDS011;15752;49.560;8.708;2023-01-13T09:19:37;1.77;;;0.73;;
28551;SDS011;15752;49.560;8.708;2023-01-13T09:22:08;3.10;;;0.80;;
28551;SDS011;15752;49.560;8.708;2023-01-13T09:24:41;1.90;;;1.00;;
28551;SDS011;15752;49.560;8.708;2023-01-13T09:27:09;2.97;;;0.80;;
28551;SDS011;15752;49.560;8.708;2023-01-13T09:29:41;1.73;;;0.70;;
28551;SDS011;15752;49.560;8.708;2023-01-13T09:32:10;3.40;;;0.70;;
28551;SDS011;15752;49.560;8.708;2023-01-13T09:34:39;2.17;;;0.83;;
28551;SDS011;15752;49.560;8.708;2023-01-13T09:37:25;3.20;;;0.80;;
28551;SDS011;15752;49.560;8.708;2023-01-13T09:39:55;3.03;;;1.10;;
28551;SDS011;15752;49.560;8.708;2023-01-13T09:42:26;2.10;;;0.80;;
28551;SDS011;15752;49.560;8.708;2023-01-13T09:45:20;3.70;;;0.73;;
28551;SDS011;15752;49.560;8.708;2023-01-13T09:47:53;1.40;;;0.77;;
28551;SDS011;15752;49.560;8.708;2023-01-13T09:50:29;1.17;;;0.60;;
28551;SDS011;15752;49.560;8.708;2023-01-13T09:53:12;3.17;;;0.90;;
28551;SDS011;15752;49.560;8.708;2023-01-13T09:55:46;2.33;;;0.73;;
28551;SDS011;15752;49.560;8.708;2023-01-13T09:58:15;1.43;;;0.70;;
28551;SDS011;15752;49.560;8.708;2023-01-13T10:00:49;1.40;;;0.77;;
28551;SDS011;15752;49.560;8.708;2023-01-13T10:03:29;1.63;;;0.70;;
28551;SDS011;15752;49.560;8.708;2023-01-13T10:06:00;5.97;;;2.10;;
28551;SDS011;15752;49.560;8.708;2023-01-13T10:08:36;4.47;;;1.73;;
28551;SDS011;15752;49.560;8.708;2023-01-13T10:11:09;2.37;;;1.40;;
28551;SDS011;15752;49.560;8.708;2023-01-13T10:14:00;2.83;;;1.20;;
28551;SDS011;15752;49.560;8.708;2023-01-13T10:16:39;4.20;;;1.70;;
28551;SDS011;15752;49.560;8.708;2023-01-13T10:19:15;3.27;;;0.97;;
28551;SDS011;15752;49.560;8.708;2023-01-13T10:21:58;2.67;;;0.97;;
28551;SDS011;15752;49.560;8.708;2023-01-13T10:24:55;2.23;;;1.27;;
28551;SDS011;15752;49.560;8.708;2023-01-13T10:27:46;1.97;;;1.30;;
28551;SDS011;15752;49.560;8.708;2023-01-13T10:30:17;2.33;;;1.13;;
28551;SDS011;15752;49.560;8.708;2023-01-13T10:32:51;2.47;;;0.90;;
28551;SDS011;15752;49.560;8.708;2023-01-13T10:38:21;4.13;;;2.13;;
28551;SDS011;15752;49.560;8.708;2023-01-13T10:40:53;2.60;;;1.37;;
28551;SDS011;15752;49.560;8.708;2023-01-13T10:43:24;5.50;;;1.77;;
28551;SDS011;15752;49.560;8.708;2023-01-13T10:45:58;2.57;;;1.07;;
28551;SDS011;15752;49.560;8.708;2023-01-13T10:48:32;5.90;;;2.03;;
28551;SDS011;15752;49.560;8.708;2023-01-13T10:53:56;6.77;;;3.87;;
28551;SDS011;15752;49.560;8.708;2023-01-13T10:56:28;4.73;;;2.10;;
28551;SDS011;15752;49.560;8.708;2023-01-13T10:59:11;5.27;;;1.70;;
28551;SDS011;15752;49.560;8.708;2023-01-13T11:01:51;2.93;;;1.20;;
28551;SDS011;15752;49.560;8.708;2023-01-13T11:04:30;3.97;;;1.27;;
28551;SDS011;15752;49.560;8.708;2023-01-13T11:07:02;5.93;;;1.40;;
28551;SDS011;15752;49.560;8.708;2023-01-13T11:09:32;3.27;;;1.00;;
28551;SDS011;15752;49.560;8.708;2023-01-13T11:12:01;6.23;;;1.40;;
28551;SDS011;15752;49.560;8.708;2023-01-13T11:14:32;5.70;;;1.60;;
28551;SDS011;15752;49.560;8.708;2023-01-13T11:17:10;4.10;;;1.60;;
28551;SDS011;15752;49.560;8.708;2023-01-13T11:20:02;6.47;;;1.67;;
28551;SDS011;15752;49.560;8.708;2023-01-13T11:22:44;5.37;;;2.17;;
28551;SDS011;15752;49.560;8.708;2023-01-13T11:25:16;4.87;;;2.13;;
28551;SDS011;15752;49.560;8.708;2023-01-13T11:27:51;4.13;;;1.63;;
28551;SDS011;15752;49.560;8.708;2023-01-13T11:30:28;5.50;;;1.60;;
28551;SDS011;15752;49.560;8.708;2023-01-13T11:33:13;7.53;;;2.20;;
28551;SDS011;15752;49.560;8.708;2023-01-13T11:36:00;3.53;;;1.50;;
28551;SDS011;15752;49.560;8.708;2023-01-13T11:38:36;5.10;;;1.60;;
28551;SDS011;15752;49.560;8.708;2023-01-13T11:41:18;4.63;;;1.90;;
28551;SDS011;15752;49.560;8.708;2023-01-13T11:44:16;6.27;;;2.87;;
28551;SDS011;15752;49.560;8.708;2023-01-13T11:46:49;7.43;;;2.13;;
28551;SDS011;15752;49.560;8.708;2023-01-13T11:49:21;3.60;;;1.50;;
28551;SDS011;15752;49.560;8.708;2023-01-13T11:51:55;4.63;;;1.20;;
28551;SDS011;15752;49.560;8.708;2023-01-13T11:54:36;5.07;;;1.13;;
28551;SDS011;15752;49.560;8.708;2023-01-13T11:57:36;4.83;;;1.23;;
28551;SDS011;15752;49.560;8.708;2023-01-13T12:03:36;5.77;;;2.60;;
28551;SDS011;15752;49.560;8.708;2023-01-13T12:06:14;9.63;;;3.53;;
28551;SDS011;15752;49.560;8.708;2023-01-13T12:11:56;10.63;;;2.50;;
28551;SDS011;15752;49.560;8.708;2023-01-13T12:15:00;4.60;;;2.33;;
28551;SDS011;15752;49.560;8.708;2023-01-13T12:18:18;9.97;;;5.57;;
28551;SDS011;15752;49.560;8.708;2023-01-13T12:21:01;9.83;;;5.20;;
28551;SDS011;15752;49.560;8.708;2023-01-13T12:23:47;8.53;;;4.23;;
28551;SDS011;15752;49.560;8.708;2023-01-13T12:26:27;8.60;;;5.53;;
28551;SDS011;15752;49.560;8.708;2023-01-13T12:29:02;12.17;;;6.93;;
28551;SDS011;15752;49.560;8.708;2023-01-13T12:31:34;11.60;;;6.17;;
28551;SDS011;15752;49.560;8.708;2023-01-13T12:37:02;8.27;;;3.47;;
28551;SDS011;15752;49.560;8.708;2023-01-13T12:39:42;12.87;;;5.83;;
28551;SDS011;15752;49.560;8.708;2023-01-13T12:42:26;15.17;;;7.87;;
28551;SDS011;15752;49.560;8.708;2023-01-13T12:45:25;14.97;;;7.93;;
28551;SDS011;15752;49.560;8.708;2023-01-13T12:47:55;18.03;;;8.13;;
28551;SDS011;15752;49.560;8.708;2023-01-13T12:50:35;13.70;;;8.17;;
28551;SDS011;15752;49.560;8.708;2023-01-13T13:02:23;6.50;;;2.33;;
28551;SDS011;15752;49.560;8.708;2023-01-13T13:04:58;4.27;;;2.30;;
28551;SDS011;15752;49.560;8.708;2023-01-13T13:08:05;6.27;;;1.57;;
28551;SDS011;15752;49.560;8.708;2023-01-13T13:10:42;4.20;;;1.57;;
28551;SDS011;15752;49.560;8.708;2023-01-13T13:13:41;4.87;;;1.70;;
28551;SDS011;15752;49.560;8.708;2023-01-13T13:22:51;6.20;;;1.43;;
28551;SDS011;15752;49.560;8.708;2023-01-13T13:25:20;5.50;;;1.50;;
28551;SDS011;15752;49.560;8.708;2023-01-13T13:30:49;4.10;;;1.10;;
28551;SDS011;15752;49.560;8.708;2023-01-13T13:33:37;8.70;;;1.70;;
28551;SDS011;15752;49.560;8.708;2023-01-13T13:36:21;5.40;;;1.13;;
28551;SDS011;15752;49.560;8.708;2023-01-13T13:39:22;4.00;;;1.27;;
28551;SDS011;15752;49.560;8.708;2023-01-13T13:42:11;7.43;;;1.10;;
28551;SDS011;15752;49.560;8.708;2023-01-13T13:45:10;3.90;;;0.90;;
28551;SDS011;15752;49.560;8.708;2023-01-13T13:50:53;5.37;;;1.47;;
28551;SDS011;15752;49.560;8.708;2023-01-13T13:53:28;5.57;;;2.20;;
28551;SDS011;15752;49.560;8.708;2023-01-13T13:56:00;4.37;;;2.30;;
28551;SDS011;15752;49.560;8.708;2023-01-13T13:58:31;6.00;;;3.10;;
28551;SDS011;15752;49.560;8.708;2023-01-13T14:01:02;10.10;;;4.60;;
28551;SDS011;15752;49.560;8.708;2023-01-13T14:03:33;5.10;;;2.03;;
28551;SDS011;15752;49.560;8.708;2023-01-13T14:06:17;5.17;;;3.27;;
28551;SDS011;15752;49.560;8.708;2023-01-13T14:08:49;5.60;;;2.57;;
28551;SDS011;15752;49.560;8.708;2023-01-13T14:11:24;8.40;;;3.17;;
28551;SDS011;15752;49.560;8.708;2023-01-13T14:14:01;3.97;;;2.23;;
28551;SDS011;15752;49.560;8.708;2023-01-13T14:16:31;4.30;;;1.50;;
28551;SDS011;15752;49.560;8.708;2023-01-13T14:19:01;4.57;;;1.60;;
28551;SDS011;15752;49.560;8.708;2023-01-13T14:21:31;4.47;;;2.17;;
28551;SDS011;15752;49.560;8.708;2023-01-13T14:24:00;6.23;;;2.10;;
28551;SDS011;15752;49.560;8.708;2023-01-13T14:26:37;6.53;;;3.07;;
28551;SDS011;15752;49.560;8.708;2023-01-13T14:29:05;3.70;;;1.57;;
28551;SDS011;15752;49.560;8.708;2023-01-13T14:31:35;3.03;;;1.60;;
28551;SDS011;15752;49.560;8.708;2023-01-13T14:34:06;4.90;;;2.10;;
28551;SDS011;15752;49.560;8.708;2023-01-13T14:36:57;6.47;;;2.13;;
28551;SDS011;15752;49.560;8.708;2023-01-13T14:39:32;4.13;;;2.47;;
28551;SDS011;15752;49.560;8.708;2023-01-13T14:42:09;4.67;;;1.63;;
28551;SDS011;15752;49.560;8.708;2023-01-13T14:44:42;4.33;;;1.30;;
28551;SDS011;15752;49.560;8.708;2023-01-13T14:47:17;7.73;;;2.03;;
28551;SDS011;15752;49.560;8.708;2023-01-13T14:49:51;9.87;;;2.73;;
28551;SDS011;15752;49.560;8.708;2023-01-13T14:52:29;6.33;;;2.30;;
28551;SDS011;15752;49.560;8.708;2023-01-13T14:55:18;9.97;;;4.13;;
28551;SDS011;15752;49.560;8.708;2023-01-13T14:57:51;5.53;;;2.23;;
28551;SDS011;15752;49.560;8.708;2023-01-13T15:00:20;5.20;;;1.67;;
28551;SDS011;15752;49.560;8.708;2023-01-13T15:03:04;3.70;;;1.40;;
28551;SDS011;15752;49.560;8.708;2023-01-13T15:05:44;4.93;;;1.00;;
28551;SDS011;15752;49.560;8.708;2023-01-13T15:08:22;6.03;;;1.33;;
28551;SDS011;15752;49.560;8.708;2023-01-13T15:10:56;3.07;;;1.10;;
28551;SDS011;15752;49.560;8.708;2023-01-13T15:13:28;2.37;;;1.00;;
28551;SDS011;15752;49.560;8.708;2023-01-13T15:16:04;5.23;;;1.23;;
28551;SDS011;15752;49.560;8.708;2023-01-13T15:18:38;3.23;;;1.17;;
28551;SDS011;15752;49.560;8.708;2023-01-13T15:21:06;3.73;;;1.40;;
28551;SDS011;15752;49.560;8.708;2023-01-13T15:23:37;2.03;;;0.90;;
28551;SDS011;15752;49.560;8.708;2023-01-13T15:26:20;4.07;;;1.13;;
28551;SDS011;15752;49.560;8.708;2023-01-13T15:28:51;4.03;;;1.30;;
28551;SDS011;15752;49.560;8.708;2023-01-13T15:31:21;7.07;;;1.97;;
28551;SDS011;15752;49.560;8.708;2023-01-13T15:33:50;5.30;;;1.60;;
28551;SDS011;15752;49.560;8.708;2023-01-13T15:36:22;7.43;;;1.57;;
28551;SDS011;15752;49.560;8.708;2023-01-13T15:38:55;5.90;;;2.07;;
28551;SDS011;15752;49.560;8.708;2023-01-13T15:41:25;5.63;;;1.50;;
28551;SDS011;15752;49.560;8.708;2023-01-13T15:44:12;5.83;;;1.47;;
28551;SDS011;15752;49.560;8.708;2023-01-13T15:47:00;3.43;;;1.30;;
28551;SDS011;15752;49.560;8.708;2023-01-13T15:49:34;7.13;;;1.43;;
28551;SDS011;15752;49.560;8.708;2023-01-13T15:52:11;5.37;;;1.33;;
28551;SDS011;15752;49.560;8.708;2023-01-13T15:54:48;8.23;;;1.50;;
28551;SDS011;15752;49.560;8.708;2023-01-13T15:57:18;3.93;;;1.20;;
28551;SDS011;15752;49.560;8.708;2023-01-13T15:59:49;4.90;;;1.40;;
28551;SDS011;15752;49.560;8.708;2023-01-13T16:02:20;4.90;;;1.40;;
28551;SDS011;15752;49.560;8.708;2023-01-13T16:04:49;8.03;;;2.17;;
28551;SDS011;15752;49.560;8.708;2023-01-13T16:07:19;6.30;;;2.10;;
28551;SDS011;15752;49.560;8.708;2023-01-13T16:09:51;3.37;;;1.80;;
28551;SDS011;15752;49.560;8.708;2023-01-13T16:12:19;6.33;;;2.17;;
28551;SDS011;15752;49.560;8.708;2023-01-13T16:14:48;5.70;;;1.87;;
28551;SDS011;15752;49.560;8.708;2023-01-13T16:17:17;3.80;;;1.10;;
28551;SDS011;15752;49.560;8.708;2023-01-13T16:19:48;3.07;;;1.43;;
28551;SDS011;15752;49.560;8.708;2023-01-13T16:22:17;5.90;;;1.80;;
28551;SDS011;15752;49.560;8.708;2023-01-13T16:24:45;4.27;;;1.70;;